createdAt,value
2022-08-07T00:02:35.192Z,63.70
2022-08-07T00:04:16.066Z,70.90
2022-08-07T00:06:51.194Z,70.40
2022-08-07T00:09:20.865Z,70.50
2022-08-07T00:11:55.373Z,68.40
2022-08-07T00:14:31.039Z,69.40
2022-08-07T00:17:00.241Z,65.60
2022-08-07T00:19:59.954Z,62.90
2022-08-07T00:22:24.600Z,65.50
2022-08-07T00:25:04.317Z,65.60
2022-08-07T00:27:51.718Z,66.00
2022-08-07T00:30:27.590Z,72.40
2022-08-07T00:32:56.443Z,68.80
2022-08-07T00:35:24.343Z,69.50
2022-08-07T00:37:52.223Z,69.30
2022-08-07T00:40:36.635Z,66.30
2022-08-07T00:43:09.633Z,61.80
2022-08-07T00:45:40.266Z,72.20
2022-08-07T00:48:10.851Z,64.40
2022-08-07T00:50:46.656Z,68.00
2022-08-07T00:53:20.074Z,71.00
2022-08-07T00:56:03.106Z,67.20
2022-08-07T00:58:32.516Z,67.30
2022-08-07T01:01:01.849Z,67.90
2022-08-07T01:03:55.610Z,67.90
2022-08-07T01:06:18.100Z,68.90
2022-08-07T01:08:52.913Z,66.40
2022-08-07T01:12:23.406Z,68.10
2022-08-07T01:14:10.206Z,72.80
2022-08-07T01:16:42.948Z,77.80
2022-08-07T01:19:18.831Z,82.60
2022-08-07T01:21:49.944Z,81.10
2022-08-07T01:24:21.857Z,89.40
2022-08-07T01:26:52.171Z,88.10
2022-08-07T01:29:21.982Z,81.00
2022-08-07T01:31:50.193Z,88.60
2022-08-07T01:34:19.520Z,81.50
2022-08-07T01:36:52.888Z,84.30
2022-08-07T01:39:26.941Z,84.30
2022-08-07T01:42:40.121Z,85.70
2022-08-07T01:44:57.300Z,84.60
2022-08-07T01:48:20.504Z,81.70
2022-08-07T01:50:14.072Z,82.80
2022-08-07T01:52:49.691Z,84.70
2022-08-07T01:55:25.328Z,80.40
2022-08-07T01:58:06.516Z,80.70
2022-08-07T02:00:48.998Z,83.30
2022-08-07T02:03:26.560Z,75.50
2022-08-07T02:06:30.808Z,78.50
2022-08-07T02:08:59.955Z,79.80
2022-08-07T02:11:43.390Z,76.40
2022-08-07T02:14:40.203Z,77.00
2022-08-07T02:17:04.679Z,74.60
2022-08-07T02:20:06.751Z,77.20
2022-08-07T02:22:25.764Z,81.00
2022-08-07T02:24:57.044Z,83.10
2022-08-07T02:27:34.084Z,78.40
2022-08-07T02:30:03.593Z,78.90
2022-08-07T02:32:36.128Z,75.00
2022-08-07T02:35:09.133Z,81.00
2022-08-07T02:37:44.175Z,71.70
2022-08-07T02:40:30.814Z,71.40
2022-08-07T02:43:02.651Z,73.60
2022-08-07T02:45:58.788Z,75.00
2022-08-07T02:48:26.857Z,73.80
2022-08-07T02:50:56.825Z,71.80
2022-08-07T02:53:27.536Z,80.90
2022-08-07T02:56:03.623Z,80.30
2022-08-07T02:58:34.198Z,82.90
2022-08-07T03:01:03.294Z,80.70
2022-08-07T03:03:50.153Z,78.40
2022-08-07T03:06:32.033Z,76.90
2022-08-07T03:09:01.894Z,81.60
2022-08-07T03:11:32.980Z,81.00
2022-08-07T03:14:07.133Z,83.70
2022-08-07T03:16:35.699Z,80.70
2022-08-07T03:19:03.731Z,84.10
2022-08-07T03:21:33.394Z,82.40
2022-08-07T03:24:20.229Z,85.10
2022-08-07T03:26:59.147Z,88.70
2022-08-07T03:29:27.970Z,90.20
2022-08-07T03:31:56.908Z,90.20
2022-08-07T03:34:27.287Z,90.30
2022-08-07T03:36:57.313Z,90.60
2022-08-07T03:39:45.790Z,90.30
2022-08-07T03:42:16.947Z,88.50
2022-08-07T03:44:47.234Z,85.70
2022-08-07T03:47:22.694Z,90.20
2022-08-07T03:49:57.018Z,92.00
2022-08-07T03:52:27.141Z,90.70
2022-08-07T03:54:57.393Z,92.00
2022-08-07T03:58:33.135Z,95.30
2022-08-07T04:00:29.352Z,93.90
2022-08-07T04:03:03.900Z,93.20
2022-08-07T04:05:41.023Z,93.10
2022-08-07T04:08:11.475Z,95.20
2022-08-07T04:10:39.821Z,93.20
2022-08-07T04:13:15.078Z,93.80
2022-08-07T04:15:43.893Z,93.30
2022-08-07T04:18:56.709Z,94.80
2022-08-07T04:21:03.139Z,94.70
2022-08-07T04:23:43.514Z,92.90
2022-08-07T04:26:23.199Z,92.80
2022-08-07T04:28:58.630Z,92.20
2022-08-07T04:31:38.915Z,93.50
2022-08-07T04:34:16.838Z,92.00
2022-08-07T04:36:45.378Z,92.50
2022-08-07T04:39:17.621Z,91.20
2022-08-07T04:41:48.277Z,91.10
2022-08-07T04:44:19.716Z,87.20
2022-08-07T04:47:04.777Z,90.30
2022-08-07T04:49:40.728Z,88.10
2022-08-07T04:52:13.478Z,90.40
2022-08-07T04:54:50.527Z,88.40
2022-08-07T04:58:14.866Z,87.40
2022-08-07T05:00:18.750Z,86.30
2022-08-07T05:02:55.224Z,87.90
2022-08-07T05:05:54.008Z,90.20
2022-08-07T05:08:19.105Z,90.70
2022-08-07T05:11:11.315Z,90.50
2022-08-07T05:14:53.475Z,90.50
2022-08-07T05:16:44.068Z,86.70
2022-08-07T05:19:14.600Z,80.60
2022-08-07T05:22:00.666Z,81.80
2022-08-07T05:24:40.545Z,81.90
2022-08-07T05:27:14.636Z,74.30
2022-08-07T05:29:57.532Z,74.40
2022-08-07T05:32:28.429Z,61.80
2022-08-07T05:34:57.042Z,64.20
2022-08-07T05:37:25.706Z,58.10
2022-08-07T05:40:05.948Z,46.90
2022-08-07T05:42:42.244Z,43.00
2022-08-07T05:45:45.985Z,37.80
2022-08-07T05:48:14.461Z,35.50
2022-08-07T05:50:43.045Z,26.50
2022-08-07T05:54:12.732Z,27.00
2022-08-07T05:56:03.132Z,23.20
2022-08-07T05:58:36.185Z,26.40
2022-08-07T06:01:06.003Z,15.80
2022-08-07T06:03:53.482Z,13.20
2022-08-07T06:06:29.766Z,11.80
2022-08-07T06:09:01.074Z,2.40
2022-08-07T06:11:32.621Z,1.00
2022-08-07T06:14:13.297Z,1.00
2022-08-07T06:16:49.980Z,1.00
2022-08-07T06:19:52.107Z,1.00
2022-08-07T06:22:14.368Z,1.00
2022-08-07T06:24:56.996Z,1.00
2022-08-07T06:28:00.323Z,1.00
2022-08-07T06:30:24.106Z,1.00
2022-08-07T06:32:52.335Z,1.00
2022-08-07T06:35:21.703Z,1.00
2022-08-07T06:37:52.976Z,1.00
2022-08-07T06:40:22.276Z,1.00
2022-08-07T06:42:50.676Z,1.00
2022-08-07T06:45:21.240Z,1.00
2022-08-07T06:47:57.647Z,1.00
2022-08-07T06:50:30.396Z,1.00
2022-08-07T06:52:59.463Z,1.00
2022-08-07T06:55:53.722Z,1.00
2022-08-07T06:58:21.526Z,1.00
2022-08-07T07:00:53.257Z,1.00
2022-08-07T07:03:39.608Z,1.00
2022-08-07T07:06:10.982Z,1.00
2022-08-07T07:08:39.901Z,1.00
2022-08-07T07:12:07.700Z,1.00
2022-08-07T07:14:03.725Z,1.00
2022-08-07T07:16:45.181Z,1.00
2022-08-07T07:19:55.547Z,1.00
2022-08-07T07:22:34.163Z,1.00
2022-08-07T07:25:14.159Z,1.00
2022-08-07T07:28:01.893Z,1.00
2022-08-07T07:30:38.324Z,1.00
2022-08-07T07:33:08.713Z,1.00
2022-08-07T07:35:44.044Z,1.00
2022-08-07T07:38:29.871Z,1.00
2022-08-07T07:41:02.131Z,1.00
2022-08-07T07:43:47.949Z,1.00
2022-08-07T07:46:53.664Z,1.00
2022-08-07T07:50:35.339Z,1.00
2022-08-07T07:52:00.816Z,1.00
2022-08-07T07:54:30.804Z,1.00
2022-08-07T07:57:01.573Z,1.00
2022-08-07T07:59:52.669Z,1.00
2022-08-07T08:02:34.102Z,1.00
2022-08-07T08:05:04.238Z,1.00
2022-08-07T08:07:32.981Z,1.00
2022-08-07T08:10:05.945Z,1.00
2022-08-07T08:12:52.105Z,1.00
2022-08-07T08:15:23.320Z,99.90
2022-08-07T08:18:36.995Z,99.90
2022-08-07T08:20:40.165Z,99.90
2022-08-07T08:23:30.141Z,1.00
2022-08-07T08:26:22.683Z,1.00
2022-08-07T08:28:53.685Z,99.90
2022-08-07T08:31:30.169Z,99.90
2022-08-07T08:34:19.075Z,1.00
2022-08-07T08:36:57.993Z,99.90
2022-08-07T08:39:38.832Z,99.90
2022-08-07T08:42:12.693Z,99.90
2022-08-07T08:44:44.823Z,99.90
2022-08-07T08:47:19.747Z,99.90
2022-08-07T08:50:02.491Z,99.90
2022-08-07T08:52:35.956Z,99.90
2022-08-07T08:55:08.038Z,99.90
2022-08-07T08:57:39.969Z,99.90
2022-08-07T09:00:09.526Z,99.90
2022-08-07T09:02:41.921Z,99.90
2022-08-07T09:05:36.664Z,1.00
2022-08-07T09:08:17.879Z,99.90
2022-08-07T09:10:59.454Z,99.90
2022-08-07T09:13:37.125Z,99.90
2022-08-07T09:16:20.344Z,99.90
2022-08-07T09:19:03.561Z,99.90
2022-08-07T09:22:09.712Z,99.90
2022-08-07T09:24:54.990Z,99.90
2022-08-07T09:27:24.104Z,99.90
2022-08-07T09:30:08.533Z,99.90
2022-08-07T09:32:44.913Z,99.90
2022-08-07T09:36:04.274Z,99.90
2022-08-07T09:38:12.075Z,99.90
2022-08-07T09:40:48.127Z,99.90
2022-08-07T09:43:39.977Z,99.90
2022-08-07T09:47:25.812Z,99.90
2022-08-07T09:50:01.119Z,99.90
2022-08-07T09:52:16.212Z,99.90
2022-08-07T09:54:47.949Z,99.90
2022-08-07T09:57:24.784Z,99.90
2022-08-07T10:00:08.225Z,1.00
2022-08-07T10:02:55.665Z,1.00
2022-08-07T10:05:58.924Z,1.00
2022-08-07T10:08:38.281Z,1.00
2022-08-07T10:11:59.516Z,1.00
2022-08-07T10:14:02.598Z,1.00
2022-08-07T10:16:39.029Z,1.00
2022-08-07T10:19:13.775Z,1.00
2022-08-07T10:22:12.664Z,99.90
2022-08-07T10:24:45.995Z,1.00
2022-08-07T10:27:46.010Z,99.90
2022-08-07T10:30:16.969Z,1.00
2022-08-07T10:32:59.682Z,99.90
2022-08-07T10:35:55.045Z,99.90
2022-08-07T10:38:42.101Z,99.90
2022-08-07T10:41:53.131Z,99.90
2022-08-07T10:44:11.403Z,99.90
2022-08-07T10:46:42.382Z,99.90
2022-08-07T10:49:15.399Z,1.00
2022-08-07T10:52:02.174Z,1.00
2022-08-07T10:54:40.875Z,1.00
2022-08-07T10:57:11.349Z,1.00
2022-08-07T10:59:48.738Z,99.90
2022-08-07T11:02:27.257Z,1.00
2022-08-07T11:05:11.136Z,99.90
2022-08-07T11:07:59.629Z,99.90
2022-08-07T11:10:33.607Z,1.00
2022-08-07T11:13:04.928Z,1.00
2022-08-07T11:15:36.160Z,1.00
2022-08-07T11:18:07.048Z,1.00
2022-08-07T11:20:41.886Z,1.00
2022-08-07T11:23:26.165Z,1.00
2022-08-07T11:26:06.493Z,1.00
2022-08-07T11:28:36.460Z,1.00
2022-08-07T11:31:08.818Z,1.00
2022-08-07T11:33:48.695Z,1.00
2022-08-07T11:36:38.921Z,1.00
2022-08-07T11:39:14.818Z,1.00
2022-08-07T11:42:01.678Z,1.00
2022-08-07T11:44:38.166Z,1.00
2022-08-07T11:47:10.278Z,1.00
2022-08-07T11:50:30.062Z,1.00
2022-08-07T11:52:43.824Z,1.00
2022-08-07T11:56:13.927Z,1.00
2022-08-07T11:58:18.020Z,1.00
2022-08-07T12:01:02.663Z,1.00
2022-08-07T12:03:46.371Z,1.00
2022-08-07T12:06:37.639Z,1.00
2022-08-07T12:09:16.672Z,1.00
2022-08-07T12:12:10.395Z,1.00
2022-08-07T12:14:45.235Z,1.00
2022-08-07T12:17:25.607Z,1.00
2022-08-07T12:20:04.795Z,1.00
2022-08-07T12:22:47.330Z,1.00
2022-08-07T12:26:05.759Z,1.00
2022-08-07T12:28:45.049Z,1.00
2022-08-07T12:31:22.405Z,1.00
2022-08-07T12:33:56.690Z,1.00
2022-08-07T12:36:33.438Z,1.00
2022-08-07T12:39:03.364Z,1.00
2022-08-07T12:41:52.136Z,1.00
2022-08-07T12:44:22.654Z,1.00
2022-08-07T12:46:58.638Z,1.00
2022-08-07T12:49:48.495Z,1.00
2022-08-07T12:52:23.196Z,1.00
2022-08-07T12:55:03.550Z,1.00
2022-08-07T12:58:01.118Z,1.00
2022-08-07T13:00:31.235Z,1.00
2022-08-07T13:03:12.001Z,1.00
2022-08-07T13:06:03.941Z,1.00
2022-08-07T13:08:50.643Z,1.00
2022-08-07T13:11:27.099Z,1.00
2022-08-07T13:13:58.958Z,1.00
2022-08-07T13:16:32.271Z,1.00
2022-08-07T13:19:03.732Z,1.00
2022-08-07T13:21:37.726Z,1.00
2022-08-07T13:24:25.770Z,1.00
2022-08-07T13:27:02.919Z,1.00
2022-08-07T13:29:37.215Z,1.00
2022-08-07T13:32:31.971Z,1.00
2022-08-07T13:35:08.794Z,1.00
2022-08-07T13:37:42.877Z,1.00
2022-08-07T13:40:36.819Z,1.00
2022-08-07T13:43:12.419Z,1.00
2022-08-07T13:46:11.801Z,1.00
2022-08-07T13:48:34.656Z,1.00
2022-08-07T13:51:27.207Z,1.00
2022-08-07T13:53:59.802Z,1.00
2022-08-07T13:56:35.980Z,1.00
2022-08-07T13:59:12.342Z,1.00
2022-08-07T14:01:51.505Z,1.00
2022-08-07T14:04:35.791Z,1.00
2022-08-07T14:07:09.547Z,1.00
2022-08-07T14:10:01.402Z,1.00
2022-08-07T14:12:31.908Z,1.00
2022-08-07T14:15:05.812Z,1.00
2022-08-07T14:18:24.213Z,1.00
2022-08-07T14:20:41.162Z,1.00
2022-08-07T14:23:31.735Z,1.00
2022-08-07T14:26:07.692Z,1.00
2022-08-07T14:28:55.866Z,1.00
2022-08-07T14:31:42.972Z,1.00
2022-08-07T14:34:19.991Z,1.00
2022-08-07T14:36:56.069Z,1.00
2022-08-07T14:40:16.470Z,1.00
2022-08-07T14:42:20.640Z,1.00
2022-08-07T14:44:53.460Z,1.00
2022-08-07T14:47:23.173Z,1.00
2022-08-07T14:49:57.552Z,1.00
2022-08-07T14:52:33.891Z,1.00
2022-08-07T14:55:02.763Z,1.00
2022-08-07T14:57:58.219Z,1.00
2022-08-07T15:00:30.333Z,1.00
2022-08-07T15:02:59.776Z,1.00
2022-08-07T15:05:30.322Z,1.00
2022-08-07T15:08:04.761Z,1.00
2022-08-07T15:10:33.258Z,1.00
2022-08-07T15:13:06.247Z,1.00
2022-08-07T15:15:38.478Z,1.00
2022-08-07T15:18:33.836Z,1.00
2022-08-07T15:21:08.309Z,1.00
2022-08-07T15:25:16.312Z,1.00
2022-08-07T15:26:44.921Z,1.00
2022-08-07T15:32:05.052Z,1.00
2022-08-07T15:34:37.218Z,1.00
2022-08-07T15:37:27.571Z,1.00
2022-08-07T15:39:59.608Z,1.00
2022-08-07T15:42:43.772Z,1.00
2022-08-07T15:45:19.199Z,1.00
2022-08-07T15:48:01.050Z,1.00
2022-08-07T15:50:37.693Z,1.00
2022-08-07T15:53:24.622Z,1.00
2022-08-07T15:56:14.280Z,1.00
2022-08-07T15:58:52.187Z,1.00
2022-08-07T16:01:22.182Z,1.00
2022-08-07T16:04:14.723Z,1.00
2022-08-07T16:06:45.209Z,1.00
2022-08-07T16:09:22.392Z,1.00
2022-08-07T16:12:05.909Z,1.00
2022-08-07T16:14:54.323Z,1.00
2022-08-07T16:18:00.692Z,1.00
2022-08-07T16:20:34.043Z,1.00
2022-08-07T16:23:25.379Z,1.00
2022-08-07T16:26:14.398Z,1.00
2022-08-07T16:29:18.775Z,1.00
2022-08-07T16:31:57.595Z,1.00
2022-08-07T16:34:37.692Z,1.00
2022-08-07T16:38:06.451Z,1.00
2022-08-07T16:40:23.109Z,1.00
2022-08-07T16:43:00.381Z,1.00
2022-08-07T16:46:47.444Z,1.00
2022-08-07T16:48:58.541Z,1.00
2022-08-07T16:51:57.827Z,1.00
2022-08-07T16:54:34.664Z,1.00
2022-08-07T16:57:06.832Z,1.00
2022-08-07T16:59:48.980Z,1.00
2022-08-07T17:02:53.632Z,1.00
2022-08-07T17:06:19.218Z,1.00
2022-08-07T17:09:04.285Z,1.00
2022-08-07T17:11:27.741Z,1.00
2022-08-07T17:14:22.027Z,1.00
2022-08-07T17:16:55.598Z,1.00
2022-08-07T17:20:02.485Z,1.00
2022-08-07T17:22:36.515Z,1.00
2022-08-07T17:25:10.958Z,1.00
2022-08-07T17:27:50.797Z,1.00
2022-08-07T17:30:26.691Z,1.00
2022-08-07T17:34:10.351Z,1.00
2022-08-07T17:35:59.942Z,1.00
2022-08-07T17:38:35.294Z,1.00
2022-08-07T17:41:12.294Z,1.00
2022-08-07T17:44:02.980Z,1.00
2022-08-07T17:46:40.163Z,1.00
2022-08-07T17:49:11.215Z,1.00
2022-08-07T17:52:00.410Z,1.00
2022-08-07T17:54:40.084Z,1.00
2022-08-07T17:57:21.784Z,1.00
2022-08-07T17:59:52.619Z,1.00
2022-08-07T18:02:23.590Z,1.00
2022-08-07T18:04:55.673Z,1.00
2022-08-07T18:07:34.359Z,1.00
2022-08-07T18:10:10.150Z,1.00
2022-08-07T18:13:09.661Z,1.00
2022-08-07T18:15:42.304Z,1.00
2022-08-07T18:18:46.849Z,1.00
2022-08-07T18:21:41.414Z,1.00
2022-08-07T18:24:07.035Z,1.00
2022-08-07T18:26:50.255Z,1.00
2022-08-07T18:30:06.867Z,1.00
2022-08-07T18:32:25.462Z,1.00
2022-08-07T18:35:07.967Z,1.00
2022-08-07T18:38:57.072Z,1.00
2022-08-07T18:40:53.597Z,1.00
2022-08-07T18:43:37.270Z,1.00
2022-08-07T18:46:24.727Z,1.00
2022-08-07T18:50:30.075Z,1.00
2022-08-07T18:52:33.775Z,1.00
2022-08-07T18:54:43.866Z,1.00
2022-08-07T18:57:29.386Z,1.00
2022-08-07T19:00:04.352Z,1.00
2022-08-07T19:02:42.193Z,1.00
2022-08-07T19:05:15.949Z,1.00
2022-08-07T19:07:51.998Z,1.00
2022-08-07T19:10:31.094Z,1.00
2022-08-07T19:13:10.185Z,1.00
2022-08-07T19:16:04.352Z,1.00
2022-08-07T19:18:45.089Z,1.00
2022-08-07T19:21:44.071Z,1.00
2022-08-07T19:24:07.533Z,1.00
2022-08-07T19:27:09.164Z,1.00
2022-08-07T19:31:05.543Z,1.00
2022-08-07T19:32:27.162Z,1.00
2022-08-07T19:35:01.121Z,1.00
2022-08-07T19:37:55.120Z,1.00
2022-08-07T19:40:31.491Z,1.00
2022-08-07T19:43:02.576Z,1.00
2022-08-07T19:46:09.254Z,1.00
2022-08-07T19:48:24.716Z,1.00
2022-08-07T19:50:54.327Z,1.00
2022-08-07T19:54:32.670Z,1.00
2022-08-07T19:58:02.495Z,1.00
2022-08-07T19:59:02.622Z,1.00
2022-08-07T20:01:52.787Z,1.00
2022-08-07T20:04:30.916Z,1.00
2022-08-07T20:07:00.433Z,1.00
2022-08-07T20:10:35.139Z,1.00
2022-08-07T20:12:34.725Z,1.00
2022-08-07T20:15:04.367Z,1.00
2022-08-07T20:17:40.013Z,1.00
2022-08-07T20:20:12.463Z,1.00
2022-08-07T20:22:45.169Z,1.00
2022-08-07T20:25:19.885Z,1.00
2022-08-07T20:27:58.131Z,1.00
2022-08-07T20:30:31.159Z,1.00
2022-08-07T20:33:01.005Z,1.00
2022-08-07T20:35:34.203Z,1.00
2022-08-07T20:38:06.299Z,1.00
2022-08-07T20:40:41.315Z,1.00
2022-08-07T20:43:19.705Z,1.00
2022-08-07T20:46:25.746Z,1.00
2022-08-07T20:48:57.879Z,1.00
2022-08-07T20:51:30.119Z,1.00
2022-08-07T20:54:08.696Z,1.00
2022-08-07T20:56:46.252Z,1.00
2022-08-07T20:59:27.139Z,1.00
2022-08-07T21:02:14.579Z,1.00
2022-08-07T21:04:55.871Z,1.00
2022-08-07T21:07:25.802Z,1.00
2022-08-07T21:10:00.434Z,1.00
2022-08-07T21:12:31.148Z,1.00
2022-08-07T21:15:00.934Z,1.00
2022-08-07T21:18:05.819Z,1.00
2022-08-07T21:20:29.585Z,1.00
2022-08-07T21:23:07.753Z,1.00
2022-08-07T21:25:56.298Z,1.00
2022-08-07T21:28:48.887Z,1.00
2022-08-07T21:31:31.483Z,1.00
2022-08-07T21:34:11.038Z,1.00
2022-08-07T21:36:50.192Z,1.00
2022-08-07T21:39:46.854Z,1.00
2022-08-07T21:42:48.178Z,1.00
2022-08-07T21:45:42.092Z,1.00
2022-08-07T21:48:02.301Z,1.00
2022-08-07T21:50:34.985Z,1.00
2022-08-07T21:53:08.424Z,1.00
2022-08-07T21:55:41.724Z,1.00
2022-08-07T21:58:30.299Z,1.00
2022-08-07T22:01:03.633Z,1.00
2022-08-07T22:03:38.872Z,1.00
2022-08-07T22:06:30.721Z,1.00
2022-08-07T22:09:02.304Z,1.00
2022-08-07T22:12:05.086Z,1.00
2022-08-07T22:14:36.236Z,1.00
2022-08-07T22:17:05.926Z,1.00
2022-08-07T22:19:37.115Z,1.00
2022-08-07T22:22:21.444Z,1.00
2022-08-07T22:25:07.669Z,1.00
2022-08-07T22:28:30.281Z,1.00
2022-08-07T22:30:29.313Z,1.00
2022-08-07T22:33:02.275Z,1.00
2022-08-07T22:35:40.345Z,1.00
2022-08-07T22:38:20.427Z,1.00
2022-08-07T22:40:57.878Z,1.00
2022-08-07T22:43:34.061Z,1.00
2022-08-07T22:46:46.855Z,1.00
2022-08-07T22:49:17.985Z,1.00
2022-08-07T22:52:01.483Z,1.00
2022-08-07T22:54:39.859Z,1.00
2022-08-07T22:57:30.265Z,1.00
2022-08-07T23:00:01.776Z,1.00
2022-08-07T23:02:40.390Z,1.00
2022-08-07T23:06:08.648Z,1.00
2022-08-07T23:08:24.229Z,1.00
2022-08-07T23:11:00.780Z,1.00
2022-08-07T23:14:15.145Z,1.00
2022-08-07T23:16:54.953Z,1.00
2022-08-07T23:19:51.945Z,1.00
2022-08-07T23:22:30.997Z,1.00
2022-08-07T23:25:09.069Z,1.00
2022-08-07T23:28:21.442Z,1.00
2022-08-07T23:30:41.996Z,1.00
2022-08-07T23:34:21.390Z,1.00
2022-08-07T23:36:28.900Z,1.00
2022-08-07T23:39:04.785Z,1.00
2022-08-07T23:42:04.817Z,1.00
2022-08-07T23:44:51.324Z,1.00
2022-08-07T23:47:27.035Z,1.00
2022-08-07T23:50:05.333Z,1.00
2022-08-07T23:53:01.178Z,1.00
2022-08-07T23:55:52.302Z,1.00
2022-08-07T23:58:24.636Z,1.00
